OSSIPEE R NR EFFINGHAM: From 03/10/2019 00:00 to 03/26/2019 00:00

Date STAGE [FT] FLOW [CFS] PRECIPITATION INCREMENT [IN] AIR TEMPERATURE [DEGF] PRECIPITATION TOTAL [IN]
03/24/2019 04:00 3.55 618.8 -- 26.9 --
03/24/2019 03:00 3.54 615.1 -- 28.5 --
03/24/2019 02:00 3.54 615.1 0.00 31.5 --
03/24/2019 01:00 3.53 611.3 0.00 31.1 --
03/24/2019 00:00 3.53 611.3 0.00 33.0 --
03/23/2019 23:00 3.52 607.5 0.00 32.9 --
03/23/2019 22:00 3.52 607.5 0.00 32.0 --
03/23/2019 21:00 3.52 607.5 0.00 32.2 --
03/23/2019 20:00 3.51 603.7 0.00 32.7 --
03/23/2019 19:00 3.51 603.7 0.00 35.0 --
03/23/2019 18:00 3.50 600.0 0.00 37.9 --
03/23/2019 17:00 3.50 600.0 0.00 39.9 --
03/23/2019 16:00 3.50 600.0 0.00 39.7 --
03/23/2019 15:00 3.49 596.3 0.00 40.9 --
03/23/2019 14:00 3.48 592.7 0.00 40.7 --
03/23/2019 13:00 3.48 592.7 0.00 40.2 --
03/23/2019 12:00 3.47 589.1 0.00 42.0 --
03/23/2019 11:00 3.47 589.1 0.02 41.8 --
03/23/2019 10:00 3.46 585.5 0.05 40.9 --
03/23/2019 09:00 3.46 585.5 0.05 39.9 --
03/23/2019 08:00 3.46 585.5 0.03 38.1 --
03/23/2019 07:00 3.45 581.9 0.03 38.2 --
03/23/2019 06:00 3.45 581.9 0.01 39.4 --
03/23/2019 05:00 3.44 578.3 0.02 39.3 --
03/23/2019 04:00 3.43 574.7 0.02 37.3 --
03/23/2019 03:00 3.42 571.1 0.03 37.0 --
03/23/2019 02:00 3.42 571.1 0.02 36.2 --
03/23/2019 01:00 3.41 567.5 0.01 34.1 --
03/23/2019 00:00 3.40 564.0 0.00 34.6 0.29
03/22/2019 23:00 3.40 564.0 0.01 33.4 --
03/22/2019 22:00 3.39 560.3 0.01 34.0 --
03/22/2019 21:00 3.39 560.3 0.00 34.6 --
03/22/2019 20:00 3.38 556.7 0.01 34.8 --
03/22/2019 19:00 3.38 556.7 0.02 36.0 --
03/22/2019 18:00 3.38 556.7 0.02 36.2 --
03/22/2019 17:00 3.38 556.7 0.05 36.4 --
03/22/2019 16:00 3.37 553.1 0.08 36.4 --
03/22/2019 15:00 3.37 553.1 0.16 34.1 --
03/22/2019 14:00 3.36 549.4 0.05 33.6 --
03/22/2019 13:00 3.35 545.8 0.00 34.5 --
03/22/2019 12:00 3.34 542.2 0.00 33.5 --
03/22/2019 11:00 3.34 542.2 0.00 33.0 --
03/22/2019 10:00 3.33 538.7 0.00 32.8 --
03/22/2019 09:00 3.32 535.1 0.00 32.9 --
03/22/2019 08:00 3.32 535.1 0.00 33.9 --
03/22/2019 07:00 3.32 535.1 0.00 33.6 --
03/22/2019 06:00 3.32 535.1 0.00 34.4 --
03/22/2019 05:00 3.32 535.1 0.00 35.6 --
03/22/2019 04:00 3.32 535.1 0.00 35.6 --
03/22/2019 03:00 3.32 535.1 0.00 35.7 --
03/22/2019 02:00 3.32 535.1 0.00 36.0 --
03/22/2019 01:00 3.32 535.1 0.00 36.4 --
03/22/2019 00:00 3.32 535.1 0.00 36.6 0.41
03/21/2019 23:00 3.32 535.1 0.00 36.7 --
03/21/2019 22:00 3.32 535.1 0.00 37.9 --
03/21/2019 21:00 3.32 535.1 0.00 38.3 --
03/21/2019 20:00 3.32 535.1 0.00 41.2 --
03/21/2019 19:00 3.32 535.1 0.00 42.5 --
03/21/2019 18:00 3.32 535.1 0.00 43.8 --
03/21/2019 17:00 3.31 531.5 0.00 44.7 --
03/21/2019 16:00 3.32 535.1 0.00 45.9 --
03/21/2019 15:00 3.32 535.1 0.00 48.0 --
03/21/2019 14:00 3.32 535.1 0.00 47.9 --
03/21/2019 13:00 3.32 535.1 0.00 47.3 --
03/21/2019 12:00 3.32 535.1 0.00 46.3 --
03/21/2019 11:00 3.32 535.1 0.00 44.6 --
03/21/2019 10:00 3.32 535.1 0.00 42.2 --
03/21/2019 09:00 3.32 535.1 0.00 32.7 --
03/21/2019 08:00 3.32 535.1 0.00 26.7 --
03/21/2019 07:00 3.32 535.1 0.00 25.1 --
03/21/2019 06:00 3.32 535.1 0.00 25.7 --
03/21/2019 05:00 3.32 535.1 0.00 25.4 --
03/21/2019 04:00 3.32 535.1 0.00 25.8 --
03/21/2019 03:00 3.32 535.1 0.00 26.4 --
03/21/2019 02:00 3.32 535.1 0.00 26.1 --
03/21/2019 01:00 3.32 535.1 0.00 26.3 --
03/21/2019 00:00 3.32 535.1 0.00 27.4 0.00
03/20/2019 23:00 3.32 535.1 0.00 28.7 --
03/20/2019 22:00 3.28 521.1 0.00 31.1 --
03/20/2019 21:00 3.30 528.0 0.00 33.8 --
03/20/2019 20:00 3.32 535.1 0.00 37.7 --
03/20/2019 19:00 3.32 535.1 0.00 42.6 --
03/20/2019 18:00 3.32 535.1 0.00 47.0 --
03/20/2019 17:00 3.33 538.7 0.00 47.9 --
03/20/2019 16:00 3.32 535.1 0.00 46.4 --
03/20/2019 15:00 3.32 535.1 0.00 45.2 --
03/20/2019 14:00 3.32 535.1 0.00 43.9 --
03/20/2019 13:00 3.32 535.1 0.00 43.2 --
03/20/2019 12:00 3.32 535.1 0.00 41.7 --
03/20/2019 11:00 3.32 535.1 0.00 37.7 --
03/20/2019 10:00 3.32 535.1 0.00 31.4 --
03/20/2019 09:00 3.32 535.1 0.00 24.5 --
03/20/2019 08:00 3.32 535.1 0.00 14.3 --
03/20/2019 07:00 3.32 535.1 0.00 10.9 --
03/20/2019 06:00 3.32 535.1 0.00 11.8 --
03/20/2019 05:00 3.32 535.1 0.00 13.1 --
03/20/2019 04:00 3.32 535.1 0.00 14.4 --
03/20/2019 03:00 3.32 535.1 0.00 15.5 --
03/20/2019 02:00 3.32 535.1 0.00 16.9 --
03/20/2019 01:00 3.32 535.1 0.00 18.3 --
03/20/2019 00:00 3.32 535.1 0.00 19.8 0.00
03/19/2019 23:00 3.32 535.1 0.00 21.8 --
03/19/2019 22:00 3.32 535.1 0.00 24.0 --
03/19/2019 21:00 3.32 535.1 0.00 26.3 --
03/19/2019 20:00 3.32 535.1 0.00 28.6 --
03/19/2019 19:00 3.32 535.1 0.00 34.1 --
03/19/2019 18:00 3.32 535.1 0.00 36.8 --
03/19/2019 17:00 3.32 535.1 0.00 39.0 --
03/19/2019 16:00 3.32 535.1 0.00 39.0 --
03/19/2019 15:00 3.32 535.1 0.00 37.8 --
03/19/2019 14:00 3.32 535.1 0.00 38.1 --
03/19/2019 13:00 3.32 535.1 0.00 36.7 --
03/19/2019 12:00 3.31 531.5 0.00 36.2 --
03/19/2019 11:00 3.31 531.5 0.00 36.3 --
03/19/2019 10:00 3.31 531.5 0.00 33.0 --
03/19/2019 09:00 3.31 531.5 0.00 26.1 --
03/19/2019 08:00 3.30 528.0 0.00 19.9 --
03/19/2019 07:00 3.30 528.0 0.00 17.7 --
03/19/2019 06:00 3.30 528.0 0.00 15.7 --
03/19/2019 05:00 3.29 524.5 0.00 14.6 --
03/19/2019 04:00 3.29 524.5 0.00 15.5 --
03/19/2019 03:00 3.29 524.5 0.00 16.8 --
03/19/2019 02:00 3.29 524.5 0.00 17.6 --
03/19/2019 01:00 3.29 524.5 0.00 19.2 --
03/19/2019 00:00 3.29 524.5 0.00 20.4 0.00
03/18/2019 23:00 3.29 524.5 0.00 21.8 --
03/18/2019 22:00 3.29 524.5 0.00 23.5 --
03/18/2019 21:00 3.29 524.5 0.00 25.9 --
03/18/2019 20:00 3.29 524.5 0.00 28.3 --
03/18/2019 19:00 3.29 524.5 0.00 31.3 --
03/18/2019 18:00 3.29 524.5 0.00 34.9 --
03/18/2019 17:00 3.29 524.5 0.00 36.8 --
03/18/2019 16:00 3.29 524.5 0.00 36.0 --
03/18/2019 15:00 3.28 521.1 0.00 35.3 --
03/18/2019 14:00 3.28 521.1 0.00 34.1 --
03/18/2019 13:00 3.28 521.1 0.00 32.8 --
03/18/2019 12:00 3.27 517.7 0.00 31.9 --
03/18/2019 11:00 3.26 514.3 0.00 30.8 --
03/18/2019 10:00 3.26 514.3 0.00 28.1 --
03/18/2019 09:00 3.25 510.9 0.00 26.8 --
03/18/2019 08:00 3.25 510.9 0.00 14.5 --
03/18/2019 07:00 3.24 507.5 0.00 12.9 --
03/18/2019 06:00 3.24 507.5 0.00 13.8 --
03/18/2019 05:00 3.23 504.1 0.00 14.5 --
03/18/2019 04:00 3.23 504.1 0.00 15.3 --
03/18/2019 03:00 3.23 504.1 0.00 16.3 --
03/18/2019 02:00 3.23 504.1 0.00 18.3 --
03/18/2019 01:00 3.22 500.7 0.00 21.1 --
03/18/2019 00:00 3.22 500.7 0.00 22.1 0.00
03/17/2019 23:00 3.21 497.3 0.00 23.5 --
03/17/2019 22:00 3.21 497.3 0.00 24.8 --
03/17/2019 21:00 3.21 497.3 0.00 25.1 --
03/17/2019 20:00 3.21 497.3 0.00 27.5 --
03/17/2019 19:00 3.21 497.3 0.00 29.4 --
03/17/2019 18:00 3.21 497.3 0.00 31.4 --
03/17/2019 17:00 3.20 494.0 0.00 33.3 --
03/17/2019 16:00 3.20 494.0 0.00 32.6 --
03/17/2019 15:00 3.19 490.8 0.00 31.8 --
03/17/2019 14:00 3.19 490.8 0.00 32.1 --
03/17/2019 13:00 3.19 490.8 0.00 31.4 --
03/17/2019 12:00 3.19 490.8 0.00 31.9 --
03/17/2019 11:00 3.18 487.5 0.00 30.6 --
03/17/2019 10:00 3.17 484.3 0.00 30.4 --
03/17/2019 09:00 3.16 481.1 0.00 29.7 --
03/17/2019 08:00 3.16 481.1 0.00 26.7 --
03/17/2019 07:00 3.15 477.9 0.00 26.5 --
03/17/2019 06:00 3.15 477.9 0.00 27.8 --
03/17/2019 05:00 3.14 474.7 0.00 29.1 --
03/17/2019 04:00 3.13 471.5 0.00 28.8 --
03/17/2019 03:00 3.13 471.5 0.00 29.0 --
03/17/2019 02:00 3.12 468.3 0.00 31.4 --
03/17/2019 01:00 3.11 465.2 0.00 31.4 --
03/17/2019 00:00 3.11 465.2 0.00 31.4 0.00
03/16/2019 23:00 3.11 465.2 0.00 32.4 --
03/16/2019 22:00 3.11 465.2 0.00 33.6 --
03/16/2019 21:00 3.11 465.2 0.00 33.5 --
03/16/2019 20:00 3.11 465.2 0.00 34.5 --
03/16/2019 19:00 3.11 465.2 0.00 35.5 --
03/16/2019 18:00 3.11 465.2 0.00 37.7 --
03/16/2019 17:00 3.11 465.2 0.00 40.2 --
03/16/2019 16:00 3.10 462.0 0.00 39.8 --
03/16/2019 15:00 3.10 462.0 0.00 40.6 --
03/16/2019 14:00 3.09 458.7 0.00 42.3 --
03/16/2019 13:00 3.09 458.7 0.00 42.1 --
03/16/2019 12:00 3.08 455.5 0.00 43.8 --
03/16/2019 11:00 3.08 455.5 0.00 45.2 --
03/16/2019 10:00 3.07 452.3 0.00 44.6 --
03/16/2019 09:00 3.05 445.8 0.00 43.5 --
03/16/2019 08:00 3.05 445.8 0.00 43.2 --
03/16/2019 07:00 3.05 445.8 0.00 41.1 --
03/16/2019 06:00 3.04 442.7 0.00 42.5 --
03/16/2019 05:00 3.04 442.7 0.00 42.2 --
03/16/2019 04:00 3.03 439.5 0.00 44.4 --
03/16/2019 03:00 3.03 439.5 0.00 42.0 --
03/16/2019 02:00 3.03 439.5 0.00 35.1 --
03/16/2019 01:00 3.02 436.3 0.00 35.5 --
03/16/2019 00:00 3.02 436.3 0.00 36.2 0.00
03/15/2019 23:00 3.02 436.3 0.00 36.1 --
03/15/2019 22:00 3.02 436.3 0.00 36.0 --
03/15/2019 21:00 3.02 436.3 0.00 36.7 --
03/15/2019 20:00 3.02 436.3 0.00 38.8 --
03/15/2019 19:00 3.02 436.3 0.00 42.0 --
03/15/2019 18:00 3.02 436.3 0.00 47.8 --
03/15/2019 17:00 3.02 436.3 0.00 60.5 --
03/15/2019 16:00 3.02 436.3 0.00 57.4 --
03/15/2019 15:00 3.02 436.3 0.00 55.6 --
03/15/2019 14:00 3.02 436.3 0.01 48.1 --
03/15/2019 13:00 3.02 436.3 0.03 42.5 --
03/15/2019 12:00 3.02 436.3 0.03 41.4 --
03/15/2019 11:00 3.02 436.3 0.03 39.8 --
03/15/2019 10:00 3.02 436.3 0.03 39.1 --
03/15/2019 09:00 3.02 436.3 0.02 35.5 --
03/15/2019 08:00 3.02 436.3 0.03 35.3 --
03/15/2019 07:00 3.02 436.3 0.07 35.1 --
03/15/2019 06:00 3.02 436.3 0.00 36.6 --
03/15/2019 05:00 3.02 436.3 0.01 35.5 --
03/15/2019 04:00 3.02 436.3 0.01 35.8 --
03/15/2019 03:00 3.02 436.3 0.01 34.8 --
03/15/2019 02:00 3.02 436.3 0.00 34.4 --
03/15/2019 01:00 3.02 436.3 0.00 33.8 --
03/15/2019 00:00 3.02 436.3 0.00 32.6 0.28
03/14/2019 23:00 3.02 436.3 0.00 32.9 --
03/14/2019 22:00 3.02 436.3 0.00 35.1 --
03/14/2019 21:00 3.02 436.3 0.00 36.1 --
03/14/2019 20:00 3.02 436.3 0.00 39.2 --
03/14/2019 19:00 3.02 436.3 0.00 40.8 --
03/14/2019 18:00 3.02 436.3 0.01 43.1 --
03/14/2019 17:00 3.02 436.3 0.02 45.8 --
03/14/2019 16:00 3.02 436.3 0.04 45.1 --
03/14/2019 15:00 3.03 439.5 0.04 44.4 --
03/14/2019 14:00 3.03 439.5 0.05 42.6 --
03/14/2019 13:00 3.03 439.5 0.08 40.4 --
03/14/2019 12:00 3.03 439.5 0.07 38.7 --
03/14/2019 11:00 3.03 439.5 0.08 36.4 --
03/14/2019 10:00 3.03 439.5 0.05 34.8 --
03/14/2019 09:00 3.03 439.5 0.05 33.3 --
03/14/2019 08:00 3.03 439.5 0.00 32.7 --
03/14/2019 07:00 3.03 439.5 0.00 31.9 --
03/14/2019 06:00 3.03 439.5 0.00 31.8 --
03/14/2019 05:00 3.03 439.5 0.00 31.7 --
03/14/2019 04:00 3.03 439.5 0.00 32.1 --
03/14/2019 03:00 3.03 439.5 0.00 32.6 --
03/14/2019 02:00 3.04 442.7 0.00 32.9 --
03/14/2019 01:00 3.04 442.7 0.00 32.8 --
03/14/2019 00:00 3.04 442.7 0.00 33.0 0.49
03/13/2019 23:00 3.04 442.7 0.00 33.6 --
03/13/2019 22:00 3.04 442.7 0.00 38.7 --
03/13/2019 21:00 3.04 442.7 0.00 39.0 --
03/13/2019 20:00 3.04 442.7 0.00 37.6 --
03/13/2019 19:00 3.04 442.7 0.00 37.5 --
03/13/2019 18:00 3.04 442.7 0.00 39.9 --
03/13/2019 17:00 3.04 442.7 0.00 41.0 --
03/13/2019 16:00 3.04 442.7 0.01 41.3 --
03/13/2019 15:00 3.04 442.7 0.01 41.6 --
03/13/2019 14:00 3.04 442.7 0.02 41.3 --
03/13/2019 13:00 3.04 442.7 0.03 40.8 --
03/13/2019 12:00 3.05 445.8 0.04 39.1 --
03/13/2019 11:00 3.05 445.8 0.02 37.6 --
03/13/2019 10:00 3.05 445.8 0.00 31.7 --
03/13/2019 09:00 3.05 445.8 0.00 24.6 --
03/13/2019 08:00 3.05 445.8 0.00 15.0 --
03/13/2019 07:00 3.05 445.8 0.00 13.4 --
03/13/2019 06:00 3.05 445.8 0.00 14.4 --
03/13/2019 05:00 3.05 445.8 0.00 15.4 --
03/13/2019 04:00 3.05 445.8 0.00 17.2 --
03/13/2019 03:00 3.06 449.1 0.00 18.9 --
03/13/2019 02:00 3.06 449.1 0.00 21.3 --
03/13/2019 01:00 3.06 449.1 0.00 23.4 --
03/13/2019 00:00 3.06 449.1 0.00 25.5 0.13
03/12/2019 23:00 3.06 449.1 0.00 26.4 --
03/12/2019 22:00 3.06 449.1 0.00 27.8 --
03/12/2019 21:00 3.07 452.3 0.00 28.9 --
03/12/2019 20:00 3.07 452.3 0.00 31.6 --
03/12/2019 19:00 3.07 452.3 0.00 33.3 --
03/12/2019 18:00 3.08 455.5 0.00 36.4 --
03/12/2019 17:00 3.08 455.5 0.00 38.7 --
03/12/2019 16:00 3.08 455.5 0.00 39.6 --
03/12/2019 15:00 3.08 455.5 0.02 39.4 --
03/12/2019 14:00 3.08 455.5 0.05 39.9 --
03/12/2019 13:00 3.08 455.5 0.05 39.0 --
03/12/2019 12:00 3.08 455.5 0.02 38.2 --
03/12/2019 11:00 3.08 455.5 0.00 37.2 --
03/12/2019 10:00 3.08 455.5 0.00 37.3 --
03/12/2019 09:00 3.08 455.5 0.00 33.9 --
03/12/2019 08:00 3.08 455.5 0.00 30.7 --
03/12/2019 07:00 3.08 455.5 0.00 29.9 --
03/12/2019 06:00 3.09 458.7 0.00 30.3 --
03/12/2019 05:00 3.09 458.7 0.00 31.0 --
03/12/2019 04:00 3.09 458.7 0.00 31.7 --
03/12/2019 03:00 3.09 458.7 0.00 32.1 --
03/12/2019 02:00 3.10 462.0 0.00 32.1 --
03/12/2019 01:00 3.10 462.0 0.00 34.8 --
03/12/2019 00:00 3.10 462.0 0.00 35.5 0.14
03/11/2019 23:00 3.10 462.0 0.00 35.5 --
03/11/2019 22:00 3.10 462.0 0.00 35.6 --
03/11/2019 21:00 3.10 462.0 0.00 36.2 --
03/11/2019 20:00 3.10 462.0 0.00 37.2 --
03/11/2019 19:00 3.11 465.2 0.01 38.3 --
03/11/2019 18:00 3.11 465.2 0.00 39.3 --
03/11/2019 17:00 3.11 465.2 0.01 40.9 --
03/11/2019 16:00 3.11 465.2 0.03 41.8 --
03/11/2019 15:00 3.11 465.2 0.04 42.7 --
03/11/2019 14:00 3.10 462.0 0.04 42.6 --
03/11/2019 13:00 3.10 462.0 0.06 43.6 --
03/11/2019 12:00 3.10 462.0 0.08 42.3 --
03/11/2019 11:00 3.10 462.0 0.10 38.6 --
03/11/2019 10:00 3.10 462.0 0.08 38.0 --
03/11/2019 09:00 3.10 462.0 0.00 36.1 --
03/11/2019 08:00 3.10 462.0 0.00 35.3 --
03/11/2019 07:00 3.10 462.0 0.00 31.4 --
03/11/2019 06:00 3.10 462.0 0.00 30.3 --
03/11/2019 05:00 3.11 465.2 0.00 30.3 --
03/11/2019 04:00 3.11 465.2 0.00 31.6 --
03/11/2019 03:00 3.11 465.2 0.00 31.8 --
03/11/2019 02:00 3.11 465.2 0.00 29.2 --
03/11/2019 01:00 3.11 465.2 0.00 28.7 --
03/11/2019 00:00 3.11 465.2 0.00 30.6 0.45
03/10/2019 23:00 3.11 465.2 0.00 30.7 --
03/10/2019 22:00 3.11 465.2 0.00 30.5 --
03/10/2019 21:00 3.10 462.0 0.00 29.9 --
03/10/2019 20:00 3.10 462.0 0.00 28.6 --
03/10/2019 19:00 3.10 462.0 0.00 27.1 --
03/10/2019 18:00 3.10 462.0 0.00 27.3 --
03/10/2019 17:00 3.10 462.0 0.00 27.7 --
03/10/2019 16:00 3.10 462.0 0.00 26.7 --
03/10/2019 15:00 3.10 462.0 0.00 25.4 --
03/10/2019 14:00 3.10 462.0 0.00 24.7 --
03/10/2019 13:00 3.09 458.7 0.00 23.7 --
03/10/2019 12:00 3.09 458.7 0.00 22.4 --
03/10/2019 11:00 3.09 458.7 0.00 22.8 --
03/10/2019 10:00 3.09 458.7 0.00 24.9 --
03/10/2019 09:00 3.10 462.0 0.00 24.3 --
03/10/2019 08:00 3.10 462.0 0.00 23.6 --
03/10/2019 07:00 3.10 462.0 0.00 22.8 --
03/10/2019 06:00 3.10 462.0 0.00 19.2 --
03/10/2019 05:00 -- -- -- -- --
03/10/2019 04:00 -- -- -- -- --
03/10/2019 03:00 -- -- -- -- --
03/10/2019 02:00 -- -- -- -- --
03/10/2019 01:00 -- -- -- -- --
03/10/2019 00:00 -- -- -- -- 0.00